THY5JN LTFM-LTBJ
Flight info
| Callsign | THY5JN |
|---|---|
| Flight time | 1h 2m |
| Altitude | 29000 |
| Route | IVGUS1E/36 IVGUS UM19 OVZOK |
| Aircraft | A321/M-SDE3FGHIRWY/LB1 |
Departure
| Time | 2026-05-04 17:14 |
|---|---|
| Airport | İstanbul Airport (LTFM) |
Arrival
| Time | 2026-05-04 18:16 |
|---|---|
| Airport | Adnan Menderes International Airport (LTBJ) |
| Time | Latitude | Longitude | Altitude | Speed | Heading |
|---|---|---|---|---|---|
| 2026-05-04 16:56 | 41.26038 | 28.74967 | 334 ft | 0 kts | 250° |
| 2026-05-04 16:56 | 41.26038 | 28.74968 | 334 ft | 0 kts | 250° |
| 2026-05-04 17:06 | 41.26039 | 28.74972 | 334 ft | 3 kts | 250° |
| 2026-05-04 17:07 | 41.26048 | 28.75022 | 332 ft | 3 kts | 282° |
| 2026-05-04 17:07 | 41.26045 | 28.75038 | 334 ft | 3 kts | 299° |
| 2026-05-04 17:07 | 41.26030 | 28.75066 | 332 ft | 3 kts | 328° |
| 2026-05-04 17:07 | 41.26021 | 28.75072 | 330 ft | 0 kts | 337° |
| 2026-05-04 17:10 | 41.26044 | 28.75060 | 331 ft | 4 kts | 339° |
| 2026-05-04 17:11 | 41.26075 | 28.75046 | 333 ft | 6 kts | 340° |
| 2026-05-04 17:11 | 41.26117 | 28.75026 | 330 ft | 7 kts | 340° |
| 2026-05-04 17:11 | 41.26231 | 28.75018 | 333 ft | 10 kts | 48° |
| 2026-05-04 17:12 | 41.26243 | 28.75114 | 334 ft | 12 kts | 89° |
| 2026-05-04 17:12 | 41.26247 | 28.75357 | 334 ft | 15 kts | 89° |
| 2026-05-04 17:13 | 41.26328 | 28.75668 | 333 ft | 10 kts | 359° |
| 2026-05-04 17:14 | 41.27577 | 28.75646 | 371 ft | 148 kts | 359° |
| 2026-05-04 17:14 | 41.28619 | 28.75636 | 1053 ft | 150 kts | 1° |
| 2026-05-04 17:14 | 41.30599 | 28.76228 | 2439 ft | 152 kts | 31° |
| 2026-05-04 17:15 | 41.31558 | 28.77040 | 2695 ft | 175 kts | 32° |
| 2026-05-04 17:15 | 41.33910 | 28.79006 | 3357 ft | 222 kts | 31° |
| 2026-05-04 17:16 | 41.36656 | 28.81207 | 5120 ft | 233 kts | 31° |
| 2026-05-04 17:16 | 41.38507 | 28.87037 | 7647 ft | 256 kts | 84° |
| 2026-05-04 17:17 | 41.38513 | 28.89426 | 8474 ft | 260 kts | 86° |
| 2026-05-04 17:17 | 41.34849 | 28.94778 | 10731 ft | 315 kts | 169° |
| 2026-05-04 17:18 | 41.32573 | 28.94999 | 10980 ft | 341 kts | 174° |
| 2026-05-04 17:18 | 41.27711 | 28.94076 | 12018 ft | 368 kts | 205° |
| 2026-05-04 17:19 | 41.24083 | 28.89323 | 13486 ft | 374 kts | 237° |
| 2026-05-04 17:19 | 41.21181 | 28.83522 | 14840 ft | 380 kts | 237° |
| 2026-05-04 17:20 | 41.18254 | 28.77611 | 16184 ft | 386 kts | 237° |
| 2026-05-04 17:20 | 41.15249 | 28.71624 | 17524 ft | 393 kts | 236° |
| 2026-05-04 17:20 | 41.13725 | 28.68600 | 18183 ft | 396 kts | 236° |
| 2026-05-04 17:21 | 41.10634 | 28.62476 | 19351 ft | 402 kts | 236° |
| 2026-05-04 17:21 | 41.07504 | 28.56268 | 20530 ft | 408 kts | 236° |
| 2026-05-04 17:22 | 41.05918 | 28.53137 | 21099 ft | 411 kts | 236° |
| 2026-05-04 17:22 | 41.04317 | 28.49983 | 21675 ft | 414 kts | 236° |
| 2026-05-04 17:23 | 40.99449 | 28.40381 | 23363 ft | 424 kts | 236° |
| 2026-05-04 17:23 | 40.97798 | 28.37129 | 23853 ft | 427 kts | 236° |
| 2026-05-04 17:23 | 40.94457 | 28.30579 | 24745 ft | 432 kts | 236° |
| 2026-05-04 17:24 | 40.92770 | 28.27280 | 25170 ft | 434 kts | 235° |
| 2026-05-04 17:24 | 40.87656 | 28.17290 | 26510 ft | 440 kts | 234° |
| 2026-05-04 17:25 | 40.85933 | 28.13932 | 26927 ft | 443 kts | 234° |
| 2026-05-04 17:25 | 40.83049 | 28.08315 | 27626 ft | 446 kts | 234° |
| 2026-05-04 17:26 | 40.79532 | 28.01454 | 28468 ft | 450 kts | 234° |
| 2026-05-04 17:26 | 40.74210 | 27.91139 | 29695 ft | 456 kts | 233° |
| 2026-05-04 17:27 | 40.70614 | 27.84200 | 30374 ft | 461 kts | 234° |
| 2026-05-04 17:27 | 40.66978 | 27.77178 | 30930 ft | 467 kts | 234° |
| 2026-05-04 17:28 | 40.63337 | 27.70161 | 31069 ft | 452 kts | 234° |
| 2026-05-04 17:29 | 40.57079 | 27.61511 | 31062 ft | 432 kts | 207° |
| 2026-05-04 17:29 | 40.48562 | 27.58808 | 31073 ft | 420 kts | 173° |
| 2026-05-04 17:31 | 40.33958 | 27.60185 | 31065 ft | 425 kts | 184° |
| 2026-05-04 17:32 | 40.19278 | 27.57367 | 31066 ft | 427 kts | 186° |
| 2026-05-04 17:33 | 40.07509 | 27.55136 | 31054 ft | 428 kts | 186° |
| 2026-05-04 17:34 | 39.95710 | 27.52880 | 31061 ft | 429 kts | 186° |
| 2026-05-04 17:35 | 39.80909 | 27.50058 | 31052 ft | 431 kts | 186° |
| 2026-05-04 17:36 | 39.74971 | 27.48931 | 31054 ft | 432 kts | 186° |
| 2026-05-04 17:36 | 39.72003 | 27.48369 | 30912 ft | 428 kts | 186° |
| 2026-05-04 17:36 | 39.69082 | 27.47814 | 30667 ft | 422 kts | 186° |
| 2026-05-04 17:36 | 39.66186 | 27.47264 | 30428 ft | 419 kts | 186° |
| 2026-05-04 17:37 | 39.63270 | 27.46716 | 30171 ft | 417 kts | 186° |
| 2026-05-04 17:37 | 39.60401 | 27.46181 | 29892 ft | 416 kts | 186° |
| 2026-05-04 17:37 | 39.57544 | 27.45650 | 29610 ft | 414 kts | 186° |
| 2026-05-04 17:37 | 39.54692 | 27.45118 | 29324 ft | 413 kts | 186° |
| 2026-05-04 17:38 | 39.51848 | 27.44584 | 29033 ft | 413 kts | 186° |
| 2026-05-04 17:38 | 39.49012 | 27.44047 | 28759 ft | 412 kts | 186° |
| 2026-05-04 17:38 | 39.46179 | 27.43511 | 28477 ft | 411 kts | 186° |
| 2026-05-04 17:38 | 39.43354 | 27.42981 | 28205 ft | 410 kts | 186° |
| 2026-05-04 17:39 | 39.37723 | 27.41901 | 27660 ft | 409 kts | 189° |
| 2026-05-04 17:39 | 39.34975 | 27.40960 | 27419 ft | 406 kts | 194° |
| 2026-05-04 17:39 | 39.32274 | 27.39939 | 27041 ft | 403 kts | 194° |
| 2026-05-04 17:40 | 39.29591 | 27.38928 | 26653 ft | 400 kts | 194° |
| 2026-05-04 17:40 | 39.26932 | 27.37931 | 26284 ft | 397 kts | 194° |
| 2026-05-04 17:40 | 39.24290 | 27.36945 | 25905 ft | 394 kts | 194° |
| 2026-05-04 17:40 | 39.21667 | 27.35966 | 25509 ft | 391 kts | 194° |
| 2026-05-04 17:41 | 39.19060 | 27.34995 | 25124 ft | 388 kts | 194° |
| 2026-05-04 17:41 | 39.16471 | 27.34030 | 24739 ft | 386 kts | 194° |
| 2026-05-04 17:41 | 39.13901 | 27.33071 | 24344 ft | 384 kts | 194° |
| 2026-05-04 17:41 | 39.11341 | 27.32114 | 23962 ft | 382 kts | 194° |
| 2026-05-04 17:42 | 39.08795 | 27.31162 | 23540 ft | 381 kts | 194° |
| 2026-05-04 17:42 | 39.06257 | 27.30219 | 23114 ft | 378 kts | 194° |
| 2026-05-04 17:42 | 39.03740 | 27.29287 | 22707 ft | 375 kts | 194° |
| 2026-05-04 17:42 | 39.01243 | 27.28363 | 22311 ft | 372 kts | 195° |
| 2026-05-04 17:43 | 38.98766 | 27.27443 | 21918 ft | 369 kts | 195° |
| 2026-05-04 17:43 | 38.96309 | 27.26533 | 21528 ft | 366 kts | 195° |
| 2026-05-04 17:43 | 38.93869 | 27.25634 | 21142 ft | 364 kts | 195° |
| 2026-05-04 17:43 | 38.91445 | 27.24741 | 20753 ft | 361 kts | 196° |
| 2026-05-04 17:44 | 38.89035 | 27.23860 | 20365 ft | 359 kts | 194° |
| 2026-05-04 17:44 | 38.86584 | 27.23328 | 19985 ft | 356 kts | 184° |
| 2026-05-04 17:44 | 38.84114 | 27.23277 | 19601 ft | 354 kts | 178° |
| 2026-05-04 17:44 | 38.81656 | 27.23308 | 19223 ft | 353 kts | 179° |
| 2026-05-04 17:45 | 38.79207 | 27.23336 | 18840 ft | 352 kts | 179° |
| 2026-05-04 17:45 | 38.76764 | 27.23361 | 18462 ft | 351 kts | 179° |
| 2026-05-04 17:45 | 38.74328 | 27.23385 | 18054 ft | 350 kts | 179° |
| 2026-05-04 17:45 | 38.71900 | 27.23409 | 17669 ft | 347 kts | 179° |
| 2026-05-04 17:46 | 38.69461 | 27.23430 | 17290 ft | 344 kts | 181° |
| 2026-05-04 17:46 | 38.67092 | 27.23139 | 16917 ft | 341 kts | 192° |
| 2026-05-04 17:46 | 38.64782 | 27.22370 | 16481 ft | 345 kts | 198° |
| 2026-05-04 17:46 | 38.62467 | 27.21534 | 16053 ft | 346 kts | 198° |
| 2026-05-04 17:47 | 38.60147 | 27.20709 | 15616 ft | 346 kts | 197° |
| 2026-05-04 17:47 | 38.57827 | 27.19890 | 15186 ft | 346 kts | 197° |
| 2026-05-04 17:47 | 38.55508 | 27.19074 | 14772 ft | 346 kts | 197° |
| 2026-05-04 17:47 | 38.53198 | 27.18259 | 14469 ft | 342 kts | 198° |
| 2026-05-04 17:48 | 38.50898 | 27.17446 | 14014 ft | 343 kts | 198° |
| 2026-05-04 17:48 | 38.48618 | 27.16639 | 13644 ft | 337 kts | 197° |
| 2026-05-04 17:48 | 38.46369 | 27.15847 | 13037 ft | 333 kts | 197° |
| 2026-05-04 17:48 | 38.44135 | 27.15063 | 12603 ft | 333 kts | 197° |
| 2026-05-04 17:49 | 38.41904 | 27.14281 | 12190 ft | 332 kts | 197° |
| 2026-05-04 17:49 | 38.39679 | 27.13499 | 11778 ft | 331 kts | 197° |
| 2026-05-04 17:49 | 38.37459 | 27.12718 | 11378 ft | 331 kts | 197° |
| 2026-05-04 17:49 | 38.35251 | 27.11940 | 10998 ft | 329 kts | 197° |
| 2026-05-04 17:50 | 38.33050 | 27.11164 | 10643 ft | 326 kts | 197° |
| 2026-05-04 17:50 | 38.30859 | 27.10391 | 10259 ft | 326 kts | 197° |
| 2026-05-04 17:50 | 38.28678 | 27.09622 | 9789 ft | 327 kts | 197° |
| 2026-05-04 17:50 | 38.26508 | 27.08856 | 9532 ft | 320 kts | 196° |
| 2026-05-04 17:51 | 38.24395 | 27.08110 | 9377 ft | 308 kts | 197° |
| 2026-05-04 17:51 | 38.22363 | 27.07512 | 8975 ft | 296 kts | 186° |
| 2026-05-04 17:51 | 38.20333 | 27.07548 | 8784 ft | 290 kts | 171° |
| 2026-05-04 17:51 | 38.18357 | 27.08098 | 8415 ft | 289 kts | 165° |
| 2026-05-04 17:52 | 38.16411 | 27.08698 | 8036 ft | 287 kts | 165° |
| 2026-05-04 17:52 | 38.14486 | 27.09280 | 7492 ft | 283 kts | 165° |
| 2026-05-04 17:52 | 38.12584 | 27.09850 | 6917 ft | 279 kts | 165° |
| 2026-05-04 17:52 | 38.10716 | 27.10408 | 6431 ft | 272 kts | 164° |
| 2026-05-04 17:53 | 38.08911 | 27.10946 | 6046 ft | 261 kts | 165° |
| 2026-05-04 17:53 | 38.07168 | 27.11485 | 5594 ft | 255 kts | 160° |
| 2026-05-04 17:53 | 38.05686 | 27.12600 | 5183 ft | 245 kts | 129° |
| 2026-05-04 17:53 | 38.04833 | 27.14400 | 4813 ft | 236 kts | 102° |
| 2026-05-04 17:54 | 38.04688 | 27.16409 | 4534 ft | 221 kts | 78° |
| 2026-05-04 17:54 | 38.05065 | 27.18194 | 4524 ft | 202 kts | 60° |
| 2026-05-04 17:54 | 38.05813 | 27.19658 | 4521 ft | 196 kts | 44° |
| 2026-05-04 17:54 | 38.06800 | 27.20716 | 4487 ft | 176 kts | 29° |
| 2026-05-04 17:55 | 38.07851 | 27.21327 | 4354 ft | 159 kts | 15° |
| 2026-05-04 17:55 | 38.08894 | 27.21564 | 4201 ft | 148 kts | 2° |
| 2026-05-04 17:55 | 38.09894 | 27.21492 | 4025 ft | 142 kts | 351° |
| 2026-05-04 17:55 | 38.10856 | 27.21215 | 3855 ft | 142 kts | 348° |
| 2026-05-04 17:56 | 38.11824 | 27.20925 | 3654 ft | 141 kts | 348° |
| 2026-05-04 17:56 | 38.12776 | 27.20640 | 3477 ft | 140 kts | 348° |
| 2026-05-04 17:56 | 38.13724 | 27.20356 | 3282 ft | 140 kts | 348° |
| 2026-05-04 17:56 | 38.14670 | 27.20073 | 3091 ft | 140 kts | 348° |
| 2026-05-04 17:57 | 38.15617 | 27.19789 | 2902 ft | 139 kts | 347° |
| 2026-05-04 17:57 | 38.16562 | 27.19505 | 2709 ft | 139 kts | 347° |
| 2026-05-04 17:57 | 38.17488 | 27.19228 | 2532 ft | 135 kts | 347° |
| 2026-05-04 17:57 | 38.18403 | 27.18953 | 2335 ft | 135 kts | 346° |
| 2026-05-04 17:58 | 38.19314 | 27.18680 | 2148 ft | 134 kts | 346° |
| 2026-05-04 17:58 | 38.20232 | 27.18405 | 1955 ft | 146 kts | 346° |
| 2026-05-04 17:58 | 38.21334 | 27.18084 | 2172 ft | 163 kts | 347° |
| 2026-05-04 17:58 | 38.22475 | 27.17762 | 2512 ft | 173 kts | 347° |
| 2026-05-04 17:59 | 38.23701 | 27.17406 | 2828 ft | 188 kts | 347° |
| 2026-05-04 17:59 | 38.24568 | 27.17143 | 3006 ft | 200 kts | 346° |
| 2026-05-04 17:59 | 38.27418 | 27.16252 | 3702 ft | 214 kts | 347° |
| 2026-05-04 18:00 | 38.28862 | 27.15798 | 4457 ft | 214 kts | 347° |
| 2026-05-04 18:00 | 38.30329 | 27.15326 | 4925 ft | 219 kts | 347° |
| 2026-05-04 18:00 | 38.31805 | 27.14847 | 4996 ft | 219 kts | 347° |
| 2026-05-04 18:00 | 38.33300 | 27.14360 | 5002 ft | 219 kts | 347° |
| 2026-05-04 18:01 | 38.34752 | 27.13885 | 5003 ft | 208 kts | 347° |
| 2026-05-04 18:01 | 38.36089 | 27.13443 | 5001 ft | 189 kts | 347° |
| 2026-05-04 18:01 | 38.37314 | 27.13031 | 5027 ft | 178 kts | 347° |
| 2026-05-04 18:02 | 38.39713 | 27.12412 | 5003 ft | 176 kts | 6° |
| 2026-05-04 18:02 | 38.40829 | 27.13034 | 5004 ft | 181 kts | 38° |
| 2026-05-04 18:02 | 38.41469 | 27.14424 | 5010 ft | 189 kts | 73° |
| 2026-05-04 18:02 | 38.41305 | 27.16099 | 5007 ft | 199 kts | 112° |
| 2026-05-04 18:03 | 38.40334 | 27.17378 | 5026 ft | 206 kts | 142° |
| 2026-05-04 18:03 | 38.39160 | 27.18430 | 5017 ft | 206 kts | 142° |
| 2026-05-04 18:03 | 38.37981 | 27.19479 | 5005 ft | 207 kts | 142° |
| 2026-05-04 18:03 | 38.36801 | 27.20532 | 5002 ft | 207 kts | 142° |
| 2026-05-04 18:04 | 38.35622 | 27.21588 | 5003 ft | 207 kts | 142° |
| 2026-05-04 18:04 | 38.34441 | 27.22646 | 5007 ft | 207 kts | 142° |
| 2026-05-04 18:04 | 38.32078 | 27.24758 | 5009 ft | 208 kts | 142° |
| 2026-05-04 18:05 | 38.30894 | 27.25812 | 5012 ft | 208 kts | 144° |
| 2026-05-04 18:05 | 38.29529 | 27.26489 | 5020 ft | 210 kts | 166° |
| 2026-05-04 18:05 | 38.28103 | 27.26910 | 5015 ft | 210 kts | 166° |
| 2026-05-04 18:05 | 38.26680 | 27.27334 | 5017 ft | 210 kts | 166° |
| 2026-05-04 18:06 | 38.23842 | 27.28183 | 5005 ft | 209 kts | 166° |
| 2026-05-04 18:06 | 38.22424 | 27.28605 | 5000 ft | 209 kts | 166° |
| 2026-05-04 18:06 | 38.21003 | 27.29029 | 5010 ft | 210 kts | 166° |
| 2026-05-04 18:07 | 38.19577 | 27.29454 | 5011 ft | 210 kts | 166° |
| 2026-05-04 18:07 | 38.18152 | 27.29879 | 5015 ft | 210 kts | 166° |
| 2026-05-04 18:07 | 38.16726 | 27.30302 | 4998 ft | 211 kts | 166° |
| 2026-05-04 18:07 | 38.15298 | 27.30726 | 5005 ft | 211 kts | 166° |
| 2026-05-04 18:08 | 38.13868 | 27.31152 | 5015 ft | 211 kts | 166° |
| 2026-05-04 18:08 | 38.12440 | 27.31581 | 5021 ft | 211 kts | 166° |
| 2026-05-04 18:08 | 38.11013 | 27.32008 | 5018 ft | 211 kts | 167° |
| 2026-05-04 18:08 | 38.09564 | 27.31999 | 5008 ft | 209 kts | 194° |
| 2026-05-04 18:09 | 38.07343 | 27.29883 | 4754 ft | 198 kts | 246° |
| 2026-05-04 18:09 | 38.06618 | 27.26593 | 4337 ft | 193 kts | 262° |
| 2026-05-04 18:10 | 38.06335 | 27.24935 | 4125 ft | 190 kts | 269° |
| 2026-05-04 18:10 | 38.06565 | 27.23361 | 3947 ft | 179 kts | 302° |
| 2026-05-04 18:10 | 38.07376 | 27.22215 | 3808 ft | 174 kts | 330° |
| 2026-05-04 18:10 | 38.08495 | 27.21706 | 3622 ft | 172 kts | 348° |
| 2026-05-04 18:11 | 38.09657 | 27.21365 | 3443 ft | 171 kts | 347° |
| 2026-05-04 18:11 | 38.10816 | 27.21018 | 3271 ft | 171 kts | 347° |
| 2026-05-04 18:11 | 38.11970 | 27.20671 | 3102 ft | 169 kts | 347° |
| 2026-05-04 18:11 | 38.13128 | 27.20324 | 2933 ft | 167 kts | 347° |
| 2026-05-04 18:12 | 38.14235 | 27.19993 | 2777 ft | 161 kts | 347° |
| 2026-05-04 18:12 | 38.15313 | 27.19670 | 2633 ft | 156 kts | 347° |
| 2026-05-04 18:12 | 38.16323 | 27.19367 | 2470 ft | 145 kts | 346° |
| 2026-05-04 18:12 | 38.17279 | 27.19080 | 2350 ft | 138 kts | 346° |
| 2026-05-04 18:13 | 38.18203 | 27.18803 | 2192 ft | 135 kts | 346° |
| 2026-05-04 18:13 | 38.19118 | 27.18531 | 2097 ft | 136 kts | 346° |
| 2026-05-04 18:13 | 38.20938 | 27.17978 | 1730 ft | 134 kts | 346° |
| 2026-05-04 18:14 | 38.21838 | 27.17706 | 1561 ft | 133 kts | 346° |
| 2026-05-04 18:14 | 38.22742 | 27.17432 | 1411 ft | 134 kts | 346° |
| 2026-05-04 18:14 | 38.23652 | 27.17166 | 1244 ft | 134 kts | 345° |
| 2026-05-04 18:15 | 38.25462 | 27.16604 | 882 ft | 132 kts | 347° |
| 2026-05-04 18:15 | 38.27250 | 27.16075 | 572 ft | 131 kts | 346° |
| 2026-05-04 18:15 | 38.28140 | 27.15812 | 432 ft | 130 kts | 347° |
| 2026-05-04 18:16 | 38.28908 | 27.15579 | 412 ft | 94 kts | 346° |
| 2026-05-04 18:16 | 38.29431 | 27.15421 | 418 ft | 63 kts | 346° |
| 2026-05-04 18:16 | 38.29806 | 27.15308 | 415 ft | 42 kts | 347° |
| 2026-05-04 18:17 | 38.29978 | 27.15154 | 411 ft | 10 kts | 260° |
| 2026-05-04 18:17 | 38.29958 | 27.15046 | 411 ft | 14 kts | 255° |
| 2026-05-04 18:17 | 38.29877 | 27.14970 | 411 ft | 8 kts | 172° |
| 2026-05-04 18:18 | 38.29813 | 27.14988 | 411 ft | 10 kts | 167° |
| 2026-05-04 18:18 | 38.29736 | 27.15011 | 411 ft | 12 kts | 167° |
| 2026-05-04 18:18 | 38.29647 | 27.15038 | 411 ft | 14 kts | 166° |
| 2026-05-04 18:18 | 38.29545 | 27.15069 | 411 ft | 16 kts | 167° |
| 2026-05-04 18:19 | 38.29315 | 27.15139 | 409 ft | 19 kts | 167° |
| 2026-05-04 18:19 | 38.29194 | 27.15175 | 411 ft | 11 kts | 166° |
| 2026-05-04 18:19 | 38.29154 | 27.15224 | 411 ft | 7 kts | 82° |
| 2026-05-04 18:20 | 38.29163 | 27.15268 | 411 ft | 0 kts | 75° |